Lake Balboa, California
Current Conditions -  °F | °C
As of 11:51 AM on Tuesday 21 Oct 2014 (Local Time) from KVNY Reporting Station
Clear Clear  
Wind Chill: 78°   Ceiling: Unl
Heat Index: 78°   Visibility: 10mi
Dew Point: 44°   Wind: 3mph
Humidity: 30%   Direction: 350°N
Pressure: 29.91"   Gusts: NA
Location:  34.198°N, 118.49°W
Report Text: KVNY 211851Z 35003KT 10SM CLR 26/07 A2991 RMK AO2 SLP119 T02560067
Loading
Personal Weather Stations






























Interactive Weather Map
Tropical Storm Tracking
New forecast layout! Learn more

10-Day Weather Forecast

Advertisements
Track Severe Weather on mobile